sensor_id;sensor_type;location;lat;lon;timestamp;pressure;altitude;pressure_sealevel;temperature;humidity
22047;BME280;11187;49.412;20.956;2022-07-10T00:00:11;95193.16;;;14.04;100.00
22047;BME280;11187;49.412;20.956;2022-07-10T00:02:44;95192.41;;;14.00;100.00
22047;BME280;11187;49.412;20.956;2022-07-10T00:05:32;95186.47;;;13.96;100.00
22047;BME280;11187;49.412;20.956;2022-07-10T00:08:07;95189.16;;;13.93;100.00
22047;BME280;11187;49.412;20.956;2022-07-10T00:10:54;95184.00;;;13.93;100.00
22047;BME280;11187;49.412;20.956;2022-07-10T00:13:27;95177.06;;;13.97;100.00
22047;BME280;11187;49.412;20.956;2022-07-10T00:16:14;95180.44;;;13.99;100.00
22047;BME280;11187;49.412;20.956;2022-07-10T00:18:47;95182.91;;;14.02;100.00
22047;BME280;11187;49.412;20.956;2022-07-10T00:21:34;95176.84;;;14.03;100.00
22047;BME280;11187;49.412;20.956;2022-07-10T00:24:07;95176.91;;;14.02;100.00
22047;BME280;11187;49.412;20.956;2022-07-10T00:26:54;95174.34;;;14.02;100.00
22047;BME280;11187;49.412;20.956;2022-07-10T00:29:27;95174.28;;;14.03;100.00
22047;BME280;11187;49.412;20.956;2022-07-10T00:32:14;95168.28;;;14.03;100.00
22047;BME280;11187;49.412;20.956;2022-07-10T00:35:08;95168.25;;;14.04;100.00
22047;BME280;11187;49.412;20.956;2022-07-10T00:38:02;95168.25;;;14.04;100.00
22047;BME280;11187;49.412;20.956;2022-07-10T00:40:56;95161.53;;;13.98;100.00
22047;BME280;11187;49.412;20.956;2022-07-10T00:43:51;95157.34;;;13.96;100.00
22047;BME280;11187;49.412;20.956;2022-07-10T00:46:27;95146.25;;;13.94;100.00
22047;BME280;11187;49.412;20.956;2022-07-10T00:49:15;95150.66;;;13.90;100.00
22047;BME280;11187;49.412;20.956;2022-07-10T00:51:49;95143.88;;;13.88;100.00
22047;BME280;11187;49.412;20.956;2022-07-10T00:54:44;95149.94;;;13.85;100.00
22047;BME280;11187;49.412;20.956;2022-07-10T00:57:38;95145.72;;;13.83;100.00
22047;BME280;11187;49.412;20.956;2022-07-10T01:00:33;95146.75;;;13.78;100.00
22047;BME280;11187;49.412;20.956;2022-07-10T01:03:07;95141.66;;;13.75;100.00
22047;BME280;11187;49.412;20.956;2022-07-10T01:06:01;95139.06;;;13.77;100.00
22047;BME280;11187;49.412;20.956;2022-07-10T01:08:35;95134.72;;;13.79;100.00
22047;BME280;11187;49.412;20.956;2022-07-10T01:11:31;95136.44;;;13.78;100.00
22047;BME280;11187;49.412;20.956;2022-07-10T01:14:06;95139.94;;;13.76;100.00
22047;BME280;11187;49.412;20.956;2022-07-10T01:16:59;95137.56;;;13.70;100.00
22047;BME280;11187;49.412;20.956;2022-07-10T01:19:33;95127.41;;;13.65;100.00
22047;BME280;11187;49.412;20.956;2022-07-10T01:22:19;95130.06;;;13.62;100.00
22047;BME280;11187;49.412;20.956;2022-07-10T01:24:52;95124.19;;;13.58;100.00
22047;BME280;11187;49.412;20.956;2022-07-10T01:27:39;95129.47;;;13.54;100.00
22047;BME280;11187;49.412;20.956;2022-07-10T01:30:12;95119.22;;;13.52;100.00
22047;BME280;11187;49.412;20.956;2022-07-10T01:33:07;95118.44;;;13.49;100.00
22047;BME280;11187;49.412;20.956;2022-07-10T01:36:01;95110.94;;;13.43;100.00
22047;BME280;11187;49.412;20.956;2022-07-10T01:38:34;95110.16;;;13.39;100.00
22047;BME280;11187;49.412;20.956;2022-07-10T01:41:21;95097.47;;;13.33;100.00
22047;BME280;11187;49.412;20.956;2022-07-10T01:43:54;95096.72;;;13.31;100.00
22047;BME280;11187;49.412;20.956;2022-07-10T01:46:45;95097.78;;;13.22;100.00
22047;BME280;11187;49.412;20.956;2022-07-10T01:49:18;95093.66;;;13.16;100.00
22047;BME280;11187;49.412;20.956;2022-07-10T01:52:12;95086.13;;;13.10;100.00
22047;BME280;11187;49.412;20.956;2022-07-10T01:54:46;95093.09;;;13.05;100.00
22047;BME280;11187;49.412;20.956;2022-07-10T01:57:33;95083.03;;;12.99;100.00
22047;BME280;11187;49.412;20.956;2022-07-10T02:00:07;95084.03;;;12.93;100.00
22047;BME280;11187;49.412;20.956;2022-07-10T02:03:01;95085.84;;;12.90;100.00
22047;BME280;11187;49.412;20.956;2022-07-10T02:06:13;95079.03;;;12.87;100.00
22047;BME280;11187;49.412;20.956;2022-07-10T02:09:07;95086.88;;;12.83;100.00
22047;BME280;11187;49.412;20.956;2022-07-10T02:11:40;95078.44;;;12.79;100.00
22047;BME280;11187;49.412;20.956;2022-07-10T02:14:35;95081.94;;;12.77;100.00
22047;BME280;11187;49.412;20.956;2022-07-10T02:17:29;95088.88;;;12.73;100.00
22047;BME280;11187;49.412;20.956;2022-07-10T02:20:03;95087.25;;;12.69;100.00
22047;BME280;11187;49.412;20.956;2022-07-10T02:22:50;95085.72;;;12.63;100.00
22047;BME280;11187;49.412;20.956;2022-07-10T02:25:23;95085.78;;;12.60;100.00
22047;BME280;11187;49.412;20.956;2022-07-10T02:28:17;95086.78;;;12.56;100.00
22047;BME280;11187;49.412;20.956;2022-07-10T02:31:11;95093.69;;;12.52;100.00
22047;BME280;11187;49.412;20.956;2022-07-10T02:34:06;95091.09;;;12.54;100.00
22047;BME280;11187;49.412;20.956;2022-07-10T02:37:00;95082.38;;;12.60;100.00
22047;BME280;11187;49.412;20.956;2022-07-10T02:39:33;95088.22;;;12.65;100.00
22047;BME280;11187;49.412;20.956;2022-07-10T02:42:27;95086.44;;;12.68;100.00
22047;BME280;11187;49.412;20.956;2022-07-10T02:45:00;95079.50;;;12.72;100.00
22047;BME280;11187;49.412;20.956;2022-07-10T02:47:54;95078.59;;;12.73;100.00
22047;BME280;11187;49.412;20.956;2022-07-10T02:50:48;95067.44;;;12.74;100.00
22047;BME280;11187;49.412;20.956;2022-07-10T02:53:42;95068.31;;;12.73;100.00
22047;BME280;11187;49.412;20.956;2022-07-10T02:56:36;95060.66;;;12.71;100.00
22047;BME280;11187;49.412;20.956;2022-07-10T02:59:30;95061.56;;;12.69;100.00
22047;BME280;11187;49.412;20.956;2022-07-10T03:02:04;95055.63;;;12.67;100.00
22047;BME280;11187;49.412;20.956;2022-07-10T03:04:58;95058.25;;;12.65;100.00
22047;BME280;11187;49.412;20.956;2022-07-10T03:07:31;95057.53;;;12.60;100.00
22047;BME280;11187;49.412;20.956;2022-07-10T03:10:25;95053.44;;;12.53;100.00
22047;BME280;11187;49.412;20.956;2022-07-10T03:13:19;95052.84;;;12.43;100.00
22047;BME280;11187;49.412;20.956;2022-07-10T03:16:13;95059.00;;;12.38;100.00
22047;BME280;11187;49.412;20.956;2022-07-10T03:18:47;95056.59;;;12.31;100.00
22047;BME280;11187;49.412;20.956;2022-07-10T03:21:33;95054.16;;;12.27;100.00
22047;BME280;11187;49.412;20.956;2022-07-10T03:24:06;95052.50;;;12.24;100.00
22047;BME280;11187;49.412;20.956;2022-07-10T03:26:53;95048.25;;;12.23;100.00
22047;BME280;11187;49.412;20.956;2022-07-10T03:29:27;95048.19;;;12.26;100.00
22047;BME280;11187;49.412;20.956;2022-07-10T03:32:20;95047.28;;;12.27;100.00
22047;BME280;11187;49.412;20.956;2022-07-10T03:35:14;95042.25;;;12.24;100.00
22047;BME280;11187;49.412;20.956;2022-07-10T03:37:47;95037.09;;;12.24;100.00
22047;BME280;11187;49.412;20.956;2022-07-10T03:40:34;95030.16;;;12.28;100.00
22047;BME280;11187;49.412;20.956;2022-07-10T03:43:08;95026.63;;;12.32;100.00
22047;BME280;11187;49.412;20.956;2022-07-10T03:45:54;95040.94;;;12.41;100.00
22047;BME280;11187;49.412;20.956;2022-07-10T03:48:27;95034.00;;;12.44;100.00
22047;BME280;11187;49.412;20.956;2022-07-10T03:51:21;95033.94;;;12.47;100.00
22047;BME280;11187;49.412;20.956;2022-07-10T03:53:55;95033.88;;;12.49;100.00
22047;BME280;11187;49.412;20.956;2022-07-10T03:56:41;95033.84;;;12.50;100.00
22047;BME280;11187;49.412;20.956;2022-07-10T03:59:32;95025.19;;;12.53;100.00
22047;BME280;11187;49.412;20.956;2022-07-10T04:02:26;95030.31;;;12.54;100.00
22047;BME280;11187;49.412;20.956;2022-07-10T04:04:59;95027.69;;;12.56;100.00
22047;BME280;11187;49.412;20.956;2022-07-10T04:07:46;95024.22;;;12.57;100.00
22047;BME280;11187;49.412;20.956;2022-07-10T04:10:20;95015.69;;;12.57;100.00
22047;BME280;11187;49.412;20.956;2022-07-10T04:13:06;95012.22;;;12.58;100.00
22047;BME280;11187;49.412;20.956;2022-07-10T04:15:39;95018.13;;;12.61;100.00
22047;BME280;11187;49.412;20.956;2022-07-10T04:18:33;95016.38;;;12.63;100.00
22047;BME280;11187;49.412;20.956;2022-07-10T04:21:27;95022.25;;;12.67;100.00
22047;BME280;11187;49.412;20.956;2022-07-10T04:24:21;95013.63;;;12.69;100.00
22047;BME280;11187;49.412;20.956;2022-07-10T04:27:15;95021.28;;;12.71;100.00
22047;BME280;11187;49.412;20.956;2022-07-10T04:30:09;95011.91;;;12.70;100.00
22047;BME280;11187;49.412;20.956;2022-07-10T04:33:03;95016.97;;;12.71;100.00
22047;BME280;11187;49.412;20.956;2022-07-10T04:35:38;95017.88;;;12.70;100.00
22047;BME280;11187;49.412;20.956;2022-07-10T04:38:24;95019.47;;;12.74;100.00
22047;BME280;11187;49.412;20.956;2022-07-10T04:40:58;95015.75;;;12.85;100.00
22047;BME280;11187;49.412;20.956;2022-07-10T04:43:44;95022.31;;;12.95;100.00
22047;BME280;11187;49.412;20.956;2022-07-10T04:46:17;95017.84;;;13.02;100.00
22047;BME280;11187;49.412;20.956;2022-07-10T04:49:04;95009.09;;;13.07;100.00
22047;BME280;11187;49.412;20.956;2022-07-10T04:51:37;95014.84;;;13.15;100.00
22047;BME280;11187;49.412;20.956;2022-07-10T04:54:25;95004.44;;;13.20;100.00
22047;BME280;11187;49.412;20.956;2022-07-10T04:56:59;95001.69;;;13.26;100.00
22047;BME280;11187;49.412;20.956;2022-07-10T04:59:45;94997.28;;;13.31;100.00
22047;BME280;11187;49.412;20.956;2022-07-10T05:02:18;95000.38;;;13.41;100.00
22047;BME280;11187;49.412;20.956;2022-07-10T05:05:12;95001.66;;;13.56;100.00
22047;BME280;11187;49.412;20.956;2022-07-10T05:08:06;95001.19;;;13.70;100.00
22047;BME280;11187;49.412;20.956;2022-07-10T05:10:39;94997.53;;;13.77;100.00
22047;BME280;11187;49.412;20.956;2022-07-10T05:13:26;94995.59;;;13.84;100.00
22047;BME280;11187;49.412;20.956;2022-07-10T05:16:00;94986.75;;;13.92;100.00
22047;BME280;11187;49.412;20.956;2022-07-10T05:18:59;94991.56;;;14.02;100.00
22047;BME280;11187;49.412;20.956;2022-07-10T05:21:33;94998.25;;;14.07;100.00
22047;BME280;11187;49.412;20.956;2022-07-10T05:24:19;94986.13;;;14.11;100.00
22047;BME280;11187;49.412;20.956;2022-07-10T05:26:53;94993.75;;;14.12;100.00
22047;BME280;11187;49.412;20.956;2022-07-10T05:29:46;94986.91;;;14.13;100.00
22047;BME280;11187;49.412;20.956;2022-07-10T05:32:20;94986.94;;;14.11;100.00
22047;BME280;11187;49.412;20.956;2022-07-10T05:35:07;94984.50;;;14.08;100.00
22047;BME280;11187;49.412;20.956;2022-07-10T05:37:41;94979.22;;;14.11;100.00
22047;BME280;11187;49.412;20.956;2022-07-10T05:40:28;94983.25;;;14.18;100.00
22047;BME280;11187;49.412;20.956;2022-07-10T05:43:02;94979.53;;;14.27;100.00
22047;BME280;11187;49.412;20.956;2022-07-10T05:45:49;94980.78;;;14.40;100.00
22047;BME280;11187;49.412;20.956;2022-07-10T05:48:24;94976.97;;;14.51;100.00
22047;BME280;11187;49.412;20.956;2022-07-10T05:51:19;94975.63;;;14.66;100.00
22047;BME280;11187;49.412;20.956;2022-07-10T05:53:59;94979.25;;;14.83;100.00
22047;BME280;11187;49.412;20.956;2022-07-10T05:56:53;94969.94;;;15.03;100.00
22047;BME280;11187;49.412;20.956;2022-07-10T05:59:47;94966.06;;;15.15;100.00
22047;BME280;11187;49.412;20.956;2022-07-10T06:02:21;94965.75;;;15.22;100.00
22047;BME280;11187;49.412;20.956;2022-07-10T06:05:08;94965.53;;;15.29;100.00
22047;BME280;11187;49.412;20.956;2022-07-10T06:07:41;94968.69;;;15.35;100.00
22047;BME280;11187;49.412;20.956;2022-07-10T06:10:34;94969.44;;;15.37;100.00
22047;BME280;11187;49.412;20.956;2022-07-10T06:13:30;94965.94;;;15.40;100.00
22047;BME280;11187;49.412;20.956;2022-07-10T06:16:04;94965.94;;;15.40;99.84
22047;BME280;11187;49.412;20.956;2022-07-10T06:18:58;94970.31;;;15.38;99.65
22047;BME280;11187;49.412;20.956;2022-07-10T06:21:52;94970.38;;;15.36;99.61
22047;BME280;11187;49.412;20.956;2022-07-10T06:24:46;94967.19;;;15.30;99.82
22047;BME280;11187;49.412;20.956;2022-07-10T06:27:33;94966.53;;;15.24;99.83
22047;BME280;11187;49.412;20.956;2022-07-10T06:30:06;94966.75;;;15.18;100.00
22047;BME280;11187;49.412;20.956;2022-07-10T06:32:53;94965.31;;;15.11;100.00
22047;BME280;11187;49.412;20.956;2022-07-10T06:35:47;94962.97;;;15.05;100.00
22047;BME280;11187;49.412;20.956;2022-07-10T06:38:41;94969.13;;;15.01;100.00
22047;BME280;11187;49.412;20.956;2022-07-10T06:41:15;94965.06;;;14.95;100.00
22047;BME280;11187;49.412;20.956;2022-07-10T06:44:08;94955.06;;;14.88;100.00
22047;BME280;11187;49.412;20.956;2022-07-10T06:47:03;94966.44;;;14.82;100.00
22047;BME280;11187;49.412;20.956;2022-07-10T06:50:14;94961.41;;;14.79;100.00
22047;BME280;11187;49.412;20.956;2022-07-10T06:52:48;94968.16;;;14.81;100.00
22047;BME280;11187;49.412;20.956;2022-07-10T06:55:42;94961.31;;;14.80;100.00
22047;BME280;11187;49.412;20.956;2022-07-10T06:58:16;94960.59;;;14.77;100.00
22047;BME280;11187;49.412;20.956;2022-07-10T07:01:09;94961.56;;;14.74;100.00
22047;BME280;11187;49.412;20.956;2022-07-10T07:03:43;94961.66;;;14.71;100.00
22047;BME280;11187;49.412;20.956;2022-07-10T07:06:36;94973.94;;;14.65;100.00
22047;BME280;11187;49.412;20.956;2022-07-10T07:09:30;94965.53;;;14.59;100.00
22047;BME280;11187;49.412;20.956;2022-07-10T07:12:24;94957.00;;;14.57;100.00
22047;BME280;11187;49.412;20.956;2022-07-10T07:15:18;94961.34;;;14.57;100.00
22047;BME280;11187;49.412;20.956;2022-07-10T07:18:12;94957.94;;;14.56;100.00
22047;BME280;11187;49.412;20.956;2022-07-10T07:21:07;94951.94;;;14.56;100.00
22047;BME280;11187;49.412;20.956;2022-07-10T07:24:00;94953.47;;;14.60;100.00
22047;BME280;11187;49.412;20.956;2022-07-10T07:26:54;94957.63;;;14.64;100.00
22047;BME280;11187;49.412;20.956;2022-07-10T07:29:48;94964.53;;;14.64;100.00
22047;BME280;11187;49.412;20.956;2022-07-10T07:32:22;94961.16;;;14.61;100.00
22047;BME280;11187;49.412;20.956;2022-07-10T07:35:10;94956.84;;;14.62;100.00
22047;BME280;11187;49.412;20.956;2022-07-10T07:38:03;94961.13;;;14.63;100.00
22047;BME280;11187;49.412;20.956;2022-07-10T07:41:00;94960.22;;;14.64;100.00
22047;BME280;11187;49.412;20.956;2022-07-10T07:43:34;94961.63;;;14.73;100.00
22047;BME280;11187;49.412;20.956;2022-07-10T07:46:20;94942.22;;;14.86;100.00
22047;BME280;11187;49.412;20.956;2022-07-10T07:48:54;94935.81;;;14.96;100.00
22047;BME280;11187;49.412;20.956;2022-07-10T07:51:40;94930.25;;;15.07;100.00
22047;BME280;11187;49.412;20.956;2022-07-10T07:54:14;94929.88;;;15.16;100.00
22047;BME280;11187;49.412;20.956;2022-07-10T07:57:07;94934.03;;;15.20;100.00
22047;BME280;11187;49.412;20.956;2022-07-10T08:00:03;94931.25;;;15.25;100.00
22047;BME280;11187;49.412;20.956;2022-07-10T08:02:58;94949.09;;;15.31;100.00
22047;BME280;11187;49.412;20.956;2022-07-10T08:05:54;94942.00;;;15.36;100.00
22047;BME280;11187;49.412;20.956;2022-07-10T08:08:28;94950.47;;;15.40;100.00
22047;BME280;11187;49.412;20.956;2022-07-10T08:11:21;94954.66;;;15.42;100.00
22047;BME280;11187;49.412;20.956;2022-07-10T08:13:56;94953.69;;;15.45;100.00
22047;BME280;11187;49.412;20.956;2022-07-10T08:16:42;94955.53;;;15.41;100.00
22047;BME280;11187;49.412;20.956;2022-07-10T08:19:16;94956.63;;;15.36;100.00
22047;BME280;11187;49.412;20.956;2022-07-10T08:22:02;94962.03;;;15.30;100.00
22047;BME280;11187;49.412;20.956;2022-07-10T08:24:36;94967.38;;;15.25;100.00
22047;BME280;11187;49.412;20.956;2022-07-10T08:27:29;94979.53;;;15.21;100.00
22047;BME280;11187;49.412;20.956;2022-07-10T08:30:23;94991.09;;;15.11;100.00
22047;BME280;11187;49.412;20.956;2022-07-10T08:33:17;95011.47;;;14.95;100.00
22047;BME280;11187;49.412;20.956;2022-07-10T08:36:11;95002.47;;;14.83;100.00
22047;BME280;11187;49.412;20.956;2022-07-10T08:39:25;95005.53;;;14.70;100.00
22047;BME280;11187;49.412;20.956;2022-07-10T08:42:20;95015.44;;;14.57;100.00
22047;BME280;11187;49.412;20.956;2022-07-10T08:44:54;95013.19;;;14.46;100.00
22047;BME280;11187;49.412;20.956;2022-07-10T08:47:41;95015.22;;;14.38;100.00
22047;BME280;11187;49.412;20.956;2022-07-10T08:50:18;95018.94;;;14.29;100.00
22047;BME280;11187;49.412;20.956;2022-07-10T08:53:30;95020.09;;;14.20;100.00
22047;BME280;11187;49.412;20.956;2022-07-10T08:56:03;95014.19;;;14.17;100.00
22047;BME280;11187;49.412;20.956;2022-07-10T08:58:52;95021.16;;;14.15;100.00
22047;BME280;11187;49.412;20.956;2022-07-10T09:01:27;95022.94;;;14.13;100.00
22047;BME280;11187;49.412;20.956;2022-07-10T09:04:22;95024.78;;;14.09;100.00
22047;BME280;11187;49.412;20.956;2022-07-10T09:06:56;95018.84;;;14.07;100.00
22047;BME280;11187;49.412;20.956;2022-07-10T09:09:54;95020.63;;;14.05;100.00
22047;BME280;11187;49.412;20.956;2022-07-10T09:12:28;95010.22;;;14.08;100.00
22047;BME280;11187;49.412;20.956;2022-07-10T09:15:31;95015.16;;;14.14;100.00
22047;BME280;11187;49.412;20.956;2022-07-10T09:18:05;95015.88;;;14.19;100.00
22047;BME280;11187;49.412;20.956;2022-07-10T09:21:06;95018.31;;;14.23;100.00
22047;BME280;11187;49.412;20.956;2022-07-10T09:24:00;95013.06;;;14.26;100.00
22047;BME280;11187;49.412;20.956;2022-07-10T09:27:08;95005.28;;;14.27;100.00
22047;BME280;11187;49.412;20.956;2022-07-10T09:30:00;95012.19;;;14.27;100.00
22047;BME280;11187;49.412;20.956;2022-07-10T09:36:12;95008.69;;;14.28;100.00
22047;BME280;11187;49.412;20.956;2022-07-10T09:38:51;95003.47;;;14.31;100.00
22047;BME280;11187;49.412;20.956;2022-07-10T09:41:46;95003.34;;;14.34;100.00
22047;BME280;11187;49.412;20.956;2022-07-10T09:44:40;95003.28;;;14.35;100.00
22047;BME280;11187;49.412;20.956;2022-07-10T09:47:23;95004.13;;;14.36;100.00
22047;BME280;11187;49.412;20.956;2022-07-10T09:55:54;95009.38;;;14.33;100.00
22047;BME280;11187;49.412;20.956;2022-07-10T09:58:32;95001.59;;;14.34;100.00
22047;BME280;11187;49.412;20.956;2022-07-10T10:01:21;94985.34;;;14.32;100.00
22047;BME280;11187;49.412;20.956;2022-07-10T10:03:58;94988.88;;;14.30;100.00
22047;BME280;11187;49.412;20.956;2022-07-10T10:06:51;94979.41;;;14.30;100.00
22047;BME280;11187;49.412;20.956;2022-07-10T10:09:33;94974.19;;;14.33;100.00
22047;BME280;11187;49.412;20.956;2022-07-10T10:12:31;94973.72;;;14.46;100.00
22047;BME280;11187;49.412;20.956;2022-07-10T10:15:10;94974.25;;;14.55;100.00
22047;BME280;11187;49.412;20.956;2022-07-10T10:18:05;94974.00;;;14.63;100.00
22047;BME280;11187;49.412;20.956;2022-07-10T10:21:00;94979.00;;;14.68;100.00
22047;BME280;11187;49.412;20.956;2022-07-10T10:23:55;94973.72;;;14.71;100.00
22047;BME280;11187;49.412;20.956;2022-07-10T10:26:49;94965.16;;;14.70;100.00
22047;BME280;11187;49.412;20.956;2022-07-10T10:29:23;94963.53;;;14.68;100.00
22047;BME280;11187;49.412;20.956;2022-07-10T10:32:09;94954.97;;;14.67;100.00
22047;BME280;11187;49.412;20.956;2022-07-10T10:34:45;94960.00;;;14.70;100.00
22047;BME280;11187;49.412;20.956;2022-07-10T10:37:50;94955.44;;;14.77;100.00
22047;BME280;11187;49.412;20.956;2022-07-10T10:40:32;94949.78;;;14.91;100.00
22047;BME280;11187;49.412;20.956;2022-07-10T10:43:23;94958.78;;;15.02;100.00
22047;BME280;11187;49.412;20.956;2022-07-10T10:45:57;94942.06;;;15.13;100.00
22047;BME280;11187;49.412;20.956;2022-07-10T10:49:04;94948.75;;;15.17;100.00
22047;BME280;11187;49.412;20.956;2022-07-10T11:00:35;94987.00;;;15.06;100.00
22047;BME280;11187;49.412;20.956;2022-07-10T11:03:28;95023.22;;;15.02;100.00
22047;BME280;11187;49.412;20.956;2022-07-10T11:06:02;95021.91;;;14.92;100.00
22047;BME280;11187;49.412;20.956;2022-07-10T11:08:49;95027.44;;;14.81;100.00
22047;BME280;11187;49.412;20.956;2022-07-10T11:14:20;95028.41;;;14.54;100.00
22047;BME280;11187;49.412;20.956;2022-07-10T11:17:00;95025.41;;;14.41;100.00
22047;BME280;11187;49.412;20.956;2022-07-10T11:19:46;95017.31;;;14.27;100.00
22047;BME280;11187;49.412;20.956;2022-07-10T11:22:46;95017.81;;;14.13;100.00
22047;BME280;11187;49.412;20.956;2022-07-10T11:25:45;95020.72;;;14.02;100.00
22047;BME280;11187;49.412;20.956;2022-07-10T11:28:54;95013.44;;;13.90;100.00
22047;BME280;11187;49.412;20.956;2022-07-10T11:31:41;95016.19;;;13.84;100.00
22047;BME280;11187;49.412;20.956;2022-07-10T11:34:19;95013.78;;;13.79;100.00
22047;BME280;11187;49.412;20.956;2022-07-10T11:37:17;95013.00;;;13.75;100.00
22047;BME280;11187;49.412;20.956;2022-07-10T11:39:51;95019.91;;;13.75;100.00
22047;BME280;11187;49.412;20.956;2022-07-10T11:42:50;95013.97;;;13.73;100.00
22047;BME280;11187;49.412;20.956;2022-07-10T11:48:22;95011.28;;;13.76;100.00
22047;BME280;11187;49.412;20.956;2022-07-10T11:50:56;95025.00;;;13.76;100.00
22047;BME280;11187;49.412;20.956;2022-07-10T11:53:56;95002.69;;;13.77;100.00
22047;BME280;11187;49.412;20.956;2022-07-10T11:56:35;94996.56;;;13.81;100.00
22047;BME280;11187;49.412;20.956;2022-07-10T11:59:26;95000.69;;;13.85;100.00
22047;BME280;11187;49.412;20.956;2022-07-10T12:02:00;94998.84;;;13.89;100.00
22047;BME280;11187;49.412;20.956;2022-07-10T12:04:46;95000.47;;;13.91;100.00
22047;BME280;11187;49.412;20.956;2022-07-10T12:07:20;94994.38;;;13.94;100.00
22047;BME280;11187;49.412;20.956;2022-07-10T12:10:13;94999.47;;;13.97;100.00
22047;BME280;11187;49.412;20.956;2022-07-10T12:13:10;94996.75;;;14.00;100.00
22047;BME280;11187;49.412;20.956;2022-07-10T12:16:04;95003.59;;;14.01;100.00
22047;BME280;11187;49.412;20.956;2022-07-10T12:18:37;95000.97;;;14.03;100.00
22047;BME280;11187;49.412;20.956;2022-07-10T12:21:24;95001.81;;;14.03;100.00
22047;BME280;11187;49.412;20.956;2022-07-10T12:23:58;94987.25;;;14.02;100.00
22047;BME280;11187;49.412;20.956;2022-07-10T12:26:46;94989.72;;;14.05;100.00
22047;BME280;11187;49.412;20.956;2022-07-10T12:29:22;94987.94;;;14.07;100.00
22047;BME280;11187;49.412;20.956;2022-07-10T12:32:09;94985.16;;;14.13;100.00
22047;BME280;11187;49.412;20.956;2022-07-10T12:34:44;94981.44;;;14.22;100.00
22047;BME280;11187;49.412;20.956;2022-07-10T12:37:32;94978.63;;;14.28;100.00
22047;BME280;11187;49.412;20.956;2022-07-10T12:40:06;94973.38;;;14.31;100.00
22047;BME280;11187;49.412;20.956;2022-07-10T12:43:05;94968.25;;;14.31;100.00
22047;BME280;11187;49.412;20.956;2022-07-10T12:46:22;94976.75;;;14.33;100.00
22047;BME280;11187;49.412;20.956;2022-07-10T12:51:53;94975.59;;;14.42;100.00
22047;BME280;11187;49.412;20.956;2022-07-10T12:54:38;94975.59;;;14.42;99.94
22047;BME280;11187;49.412;20.956;2022-07-10T12:57:24;94980.75;;;14.42;100.00
22047;BME280;11187;49.412;20.956;2022-07-10T13:00:05;94979.84;;;14.43;100.00
22047;BME280;11187;49.412;20.956;2022-07-10T13:03:07;94978.25;;;14.39;99.72
22047;BME280;11187;49.412;20.956;2022-07-10T13:06:03;94983.38;;;14.40;100.00
22047;BME280;11187;49.412;20.956;2022-07-10T13:08:58;94978.16;;;14.42;100.00
22047;BME280;11187;49.412;20.956;2022-07-10T13:11:31;94977.22;;;14.45;100.00
22047;BME280;11187;49.412;20.956;2022-07-10T13:14:18;94972.94;;;14.44;100.00
22047;BME280;11187;49.412;20.956;2022-07-10T13:16:52;94974.56;;;14.46;99.88
22047;BME280;11187;49.412;20.956;2022-07-10T13:19:38;94974.53;;;14.48;100.00
22047;BME280;11187;49.412;20.956;2022-07-10T13:22:12;94995.88;;;14.51;99.26
22047;BME280;11187;49.412;20.956;2022-07-10T13:24:58;95021.69;;;14.50;97.82
22047;BME280;11187;49.412;20.956;2022-07-10T13:27:32;95008.97;;;14.45;97.50
22047;BME280;11187;49.412;20.956;2022-07-10T13:30:25;95008.28;;;14.40;98.10
22047;BME280;11187;49.412;20.956;2022-07-10T13:32:59;95015.16;;;14.39;97.84
22047;BME280;11187;49.412;20.956;2022-07-10T13:35:46;95016.22;;;14.34;97.43
22047;BME280;11187;49.412;20.956;2022-07-10T13:38:40;95013.81;;;14.29;96.00
22047;BME280;11187;49.412;20.956;2022-07-10T13:41:15;95024.22;;;14.26;97.22
22047;BME280;11187;49.412;20.956;2022-07-10T13:44:02;95031.16;;;14.24;96.81
22047;BME280;11187;49.412;20.956;2022-07-10T13:46:41;95025.25;;;14.20;96.41
22047;BME280;11187;49.412;20.956;2022-07-10T13:49:36;95029.56;;;14.20;94.92
22047;BME280;11187;49.412;20.956;2022-07-10T13:52:09;95026.09;;;14.21;95.96
22047;BME280;11187;49.412;20.956;2022-07-10T13:54:55;95019.28;;;14.20;96.36
22047;BME280;11187;49.412;20.956;2022-07-10T13:57:29;95010.75;;;14.18;94.97
22047;BME280;11187;49.412;20.956;2022-07-10T14:00:15;95006.41;;;14.20;95.12
22047;BME280;11187;49.412;20.956;2022-07-10T14:02:49;95005.56;;;14.19;95.65
22047;BME280;11187;49.412;20.956;2022-07-10T14:05:37;95001.19;;;14.22;95.83
22047;BME280;11187;49.412;20.956;2022-07-10T14:08:11;95005.44;;;14.23;95.33
22047;BME280;11187;49.412;20.956;2022-07-10T14:11:04;95001.09;;;14.25;95.02
22047;BME280;11187;49.412;20.956;2022-07-10T14:13:58;94989.84;;;14.27;94.62
22047;BME280;11187;49.412;20.956;2022-07-10T14:16:32;94991.47;;;14.30;94.33
22047;BME280;11187;49.412;20.956;2022-07-10T14:19:18;94994.00;;;14.31;95.63
22047;BME280;11187;49.412;20.956;2022-07-10T14:21:52;94978.53;;;14.31;96.36
22047;BME280;11187;49.412;20.956;2022-07-10T14:24:38;94985.28;;;14.35;95.66
22047;BME280;11187;49.412;20.956;2022-07-10T14:27:12;94985.97;;;14.39;96.00
22047;BME280;11187;49.412;20.956;2022-07-10T14:29:59;94987.53;;;14.45;95.00
22047;BME280;11187;49.412;20.956;2022-07-10T14:32:32;94986.31;;;14.55;94.94
22047;BME280;11187;49.412;20.956;2022-07-10T14:35:25;94993.88;;;14.59;93.95
22047;BME280;11187;49.412;20.956;2022-07-10T14:38:19;94994.66;;;14.61;94.77
22047;BME280;11187;49.412;20.956;2022-07-10T14:40:54;94997.25;;;14.61;94.72